PDT,Max TemperatureF,Mean TemperatureF,Min TemperatureF,Max Dew PointF,MeanDew PointF,Min DewpointF,Max Humidity, Mean Humidity, Min Humidity, Max Sea Level PressureIn, Mean Sea Level PressureIn, Min Sea Level PressureIn, Max VisibilityMiles, Mean VisibilityMiles, Min VisibilityMiles, Max Wind SpeedMPH, Mean Wind SpeedMPH, Max Gust SpeedMPH,PrecipitationIn, CloudCover, Events, WindDirDegrees
2013-3-1,63,43,23,37,28,21,100,64,27,30.54,30.48,30.36,10,4,0,9,1,14,0.00,2,Fog,119
2013-3-2,58,42,26,37,32,25,100,72,43,30.35,30.21,30.07,10,10,5,14,4,16,0.00,2,,264
2013-3-3,50,40,29,37,33,23,100,71,42,30.10,30.07,30.01,10,10,5,15,2,21,0.04,7,Rain,258
2013-3-4,56,39,22,34,28,19,89,64,38,30.15,30.06,29.98,10,9,5,15,4,44,0.00,2,,191
2013-3-5,52,41,29,34,28,22,92,67,41,29.97,29.81,29.65,10,10,10,36,15,46,0.00,5,,179
2013-3-6,41,31,21,29,27,22,100,77,54,29.99,29.80,29.57,10,5,0,37,15,49,0.07,6,Fog-Snow,230
2013-3-7,44,29,13,28,22,14,92,68,43,30.04,29.96,29.88,10,10,4,12,2,15,0.00,5,,41
2013-3-8,50,34,17,28,22,16,100,66,31,30.05,29.92,29.85,10,8,0,15,4,20,0.00,3,Fog,11
2013-3-9,52,38,23,23,20,16,88,56,24,30.47,30.31,30.09,10,10,9,15,5,21,0.00,0,,4
2013-3-10,58,37,15,23,19,6,92,53,13,30.54,30.44,30.36,10,10,6,8,2,12,0.00,0,,111
2013-3-11,61,41,20,34,27,18,96,65,33,30.41,30.32,30.22,10,10,6,9,2,14,0.00,0,,334
2013-3-12,69,46,23,34,27,22,100,59,17,30.28,30.21,30.13,10,9,4,10,2,15,0.00,0,,292
2013-3-13,68,45,22,31,26,21,92,55,18,30.30,30.23,30.18,10,10,6,13,2,16,0.00,0,,268
2013-3-14,68,47,25,35,28,24,92,57,22,30.24,30.20,30.14,10,10,5,16,3,20,0.00,1,,270
2013-3-15,64,46,27,32,27,24,92,59,25,30.21,30.16,30.09,10,10,10,16,4,22,0.00,0,,314
2013-3-16,60,40,20,32,27,21,92,58,24,30.16,30.08,29.99,10,10,9,31,6,47,0.00,1,,285
2013-3-17,52,36,19,28,21,17,96,61,26,30.17,30.12,30.06,10,8,1,17,6,23,0.00,0,,281
2013-3-18,56,36,15,25,19,11,92,56,19,30.20,30.12,30.06,10,9,5,12,2,15,0.00,0,,342
2013-3-19,58,43,28,40,31,24,85,62,38,30.12,30.04,29.92,10,10,8,20,7,26,T,8,Rain,194
2013-3-20,57,44,31,38,35,25,86,65,43,30.04,29.89,29.83,10,10,10,23,16,31,0.01,7,Rain,217
2013-3-21,46,31,16,25,19,10,92,60,27,30.20,30.15,30.07,10,10,9,21,7,46,0.00,3,,299
2013-3-22,42,30,18,19,15,10,84,57,30,30.25,30.19,30.15,10,10,10,16,8,24,0.00,1,,310
2013-3-23,51,31,10,16,12,1,84,49,13,30.29,30.21,30.13,10,9,6,15,3,33,0.00,1,,324
2013-3-24,59,38,16,26,19,13,84,54,23,30.20,30.10,30.01,10,10,5,10,2,25,0.00,1,,281
2013-3-25,63,45,26,35,26,17,92,55,17,30.02,29.93,29.84,10,10,6,21,6,25,T,2,Rain,261
2013-3-26,55,45,34,38,36,32,100,73,45,29.96,29.92,29.87,10,10,9,3,4,5,0.01,8,Rain,263
2013-3-27,60,46,31,38,33,29,92,63,33,29.99,29.93,29.88,10,10,9,5,5,7,0.00,5,,233
2013-3-28,60,44,27,41,33,28,100,70,40,30.17,30.05,30.00,10,9,6,24,6,29,0.02,4,,240
2013-3-29,67,46,24,37,28,24,92,57,22,30.23,30.16,30.10,10,10,7,10,2,14,0.00,1,,16
2013-3-30,74,49,24,37,29,20,92,53,14,30.18,30.08,29.96,10,10,8,17,4,23,0.00,1,,184
2013-3-31,51,45,38,43,39,33,89,80,70,30.11,30.01,29.91,10,10,8,23,6,26,0.17,7,Rain,250